SCKC weather

Roberto Chavéz Airport
Cunco, Araucanía Region, Chile

Public forecast

Using degrees Celsius for public forecast. Weather courtesy of forecast.io.

Closest aviation weather report (METAR) to Roberto Chavéz Airport

Closest report is La Araucanía Airport, 20.4 nm (37.8 km) W. Retrieved 2020/06/04 00:00 UTC (60 minutes ago):

SCQP 040000Z AUTO 20002KT CAVOK 05/04 Q1022

Closest aviation forecast (TAF) to Roberto Chavéz Airport

Closest forecast is La Araucanía Airport, 20.4 nm (37.8 km) W. Retrieved 2020-06-04 00:00 UTC (60 minutes ago):

TAF SCQP 032221Z 0400/0424 20004KT CAVOK TNM01/0412Z TX11/0419Z BECMG 0401/0403 VRB02KT 3000 BR SCT004 BECMG 0404/0406 0400 FG OVC002 TEMPO 0414/0417 3000 BR SCT003 BKN010 BECMG 0416/0418 9999 NSW FEW008 SCT016 BKN200